sensor_id;sensor_type;location;lat;lon;timestamp;P1;durP1;ratioP1;P2;durP2;ratioP2
62475;SDS011;50739;45.670;11.936;2023-05-08T00:03:59;5.85;;;5.03;;
62475;SDS011;50739;45.670;11.936;2023-05-08T00:09:02;4.93;;;4.45;;
62475;SDS011;50739;45.670;11.936;2023-05-08T00:14:05;5.63;;;4.65;;
62475;SDS011;50739;45.670;11.936;2023-05-08T00:19:07;4.87;;;4.37;;
62475;SDS011;50739;45.670;11.936;2023-05-08T00:24:11;9.60;;;8.45;;
62475;SDS011;50739;45.670;11.936;2023-05-08T00:29:13;10.50;;;8.40;;
62475;SDS011;50739;45.670;11.936;2023-05-08T00:34:15;10.82;;;8.55;;
62475;SDS011;50739;45.670;11.936;2023-05-08T00:39:19;7.20;;;4.38;;
62475;SDS011;50739;45.670;11.936;2023-05-08T00:44:22;7.78;;;2.53;;
62475;SDS011;50739;45.670;11.936;2023-05-08T00:49:24;5.77;;;2.80;;
62475;SDS011;50739;45.670;11.936;2023-05-08T00:54:28;5.10;;;1.80;;
62475;SDS011;50739;45.670;11.936;2023-05-08T00:59:31;4.03;;;1.55;;
62475;SDS011;50739;45.670;11.936;2023-05-08T01:04:34;6.60;;;3.15;;
62475;SDS011;50739;45.670;11.936;2023-05-08T01:09:39;3.60;;;1.80;;
62475;SDS011;50739;45.670;11.936;2023-05-08T01:14:45;2.42;;;1.85;;
62475;SDS011;50739;45.670;11.936;2023-05-08T01:20:00;4.13;;;2.28;;
62475;SDS011;50739;45.670;11.936;2023-05-08T01:30:57;4.72;;;2.40;;
62475;SDS011;50739;45.670;11.936;2023-05-08T01:36:08;4.03;;;2.50;;
62475;SDS011;50739;45.670;11.936;2023-05-08T01:41:24;3.22;;;2.00;;
62475;SDS011;50739;45.670;11.936;2023-05-08T01:46:27;2.80;;;1.52;;
62475;SDS011;50739;45.670;11.936;2023-05-08T01:51:37;2.70;;;1.50;;
62475;SDS011;50739;45.670;11.936;2023-05-08T01:56:44;2.47;;;1.90;;
62475;SDS011;50739;45.670;11.936;2023-05-08T02:01:49;3.65;;;1.55;;
62475;SDS011;50739;45.670;11.936;2023-05-08T02:06:55;2.53;;;1.75;;
62475;SDS011;50739;45.670;11.936;2023-05-08T02:11:59;3.00;;;1.90;;
62475;SDS011;50739;45.670;11.936;2023-05-08T02:17:03;4.60;;;3.00;;
62475;SDS011;50739;45.670;11.936;2023-05-08T02:22:10;4.95;;;3.10;;
62475;SDS011;50739;45.670;11.936;2023-05-08T02:27:13;4.43;;;3.55;;
62475;SDS011;50739;45.670;11.936;2023-05-08T02:32:17;4.10;;;3.20;;
62475;SDS011;50739;45.670;11.936;2023-05-08T02:37:22;4.35;;;3.70;;
62475;SDS011;50739;45.670;11.936;2023-05-08T02:42:26;5.68;;;3.80;;
62475;SDS011;50739;45.670;11.936;2023-05-08T02:47:30;3.83;;;3.53;;
62475;SDS011;50739;45.670;11.936;2023-05-08T02:52:41;3.57;;;3.27;;
62475;SDS011;50739;45.670;11.936;2023-05-08T02:57:49;4.80;;;3.70;;
62475;SDS011;50739;45.670;11.936;2023-05-08T03:02:58;4.00;;;3.60;;
62475;SDS011;50739;45.670;11.936;2023-05-08T03:08:09;3.57;;;3.27;;
62475;SDS011;50739;45.670;11.936;2023-05-08T03:13:16;4.18;;;3.13;;
62475;SDS011;50739;45.670;11.936;2023-05-08T03:18:20;3.83;;;2.80;;
62475;SDS011;50739;45.670;11.936;2023-05-08T03:23:28;4.28;;;3.40;;
62475;SDS011;50739;45.670;11.936;2023-05-08T03:28:33;4.13;;;3.30;;
62475;SDS011;50739;45.670;11.936;2023-05-08T03:33:37;3.67;;;3.38;;
62475;SDS011;50739;45.670;11.936;2023-05-08T03:38:43;4.10;;;3.42;;
62475;SDS011;50739;45.670;11.936;2023-05-08T03:43:45;4.95;;;4.18;;
62475;SDS011;50739;45.670;11.936;2023-05-08T03:48:49;5.43;;;4.57;;
62475;SDS011;50739;45.670;11.936;2023-05-08T03:53:53;5.85;;;4.40;;
62475;SDS011;50739;45.670;11.936;2023-05-08T03:58:59;6.17;;;4.63;;
62475;SDS011;50739;45.670;11.936;2023-05-08T04:04:11;5.13;;;4.60;;
62475;SDS011;50739;45.670;11.936;2023-05-08T04:09:22;5.45;;;4.95;;
62475;SDS011;50739;45.670;11.936;2023-05-08T04:14:29;5.88;;;4.80;;
62475;SDS011;50739;45.670;11.936;2023-05-08T04:19:37;5.43;;;4.80;;
62475;SDS011;50739;45.670;11.936;2023-05-08T04:24:45;5.27;;;4.40;;
62475;SDS011;50739;45.670;11.936;2023-05-08T04:29:49;5.72;;;4.65;;
62475;SDS011;50739;45.670;11.936;2023-05-08T04:34:52;5.93;;;4.90;;
62475;SDS011;50739;45.670;11.936;2023-05-08T04:39:56;5.50;;;5.00;;
62475;SDS011;50739;45.670;11.936;2023-05-08T04:44:59;6.57;;;4.95;;
62475;SDS011;50739;45.670;11.936;2023-05-08T04:50:01;6.00;;;4.90;;
62475;SDS011;50739;45.670;11.936;2023-05-08T04:55:05;5.97;;;5.38;;
62475;SDS011;50739;45.670;11.936;2023-05-08T05:00:09;6.97;;;5.47;;
62475;SDS011;50739;45.670;11.936;2023-05-08T05:05:12;7.77;;;6.40;;
62475;SDS011;50739;45.670;11.936;2023-05-08T05:10:15;7.60;;;5.85;;
62475;SDS011;50739;45.670;11.936;2023-05-08T05:15:19;6.78;;;6.05;;
62475;SDS011;50739;45.670;11.936;2023-05-08T05:20:22;8.73;;;6.32;;
62475;SDS011;50739;45.670;11.936;2023-05-08T05:25:25;7.22;;;6.45;;
62475;SDS011;50739;45.670;11.936;2023-05-08T05:30:28;7.70;;;6.85;;
62475;SDS011;50739;45.670;11.936;2023-05-08T05:35:30;8.20;;;6.97;;
62475;SDS011;50739;45.670;11.936;2023-05-08T05:40:34;7.65;;;6.90;;
62475;SDS011;50739;45.670;11.936;2023-05-08T05:45:36;7.80;;;7.00;;
62475;SDS011;50739;45.670;11.936;2023-05-08T05:50:39;9.00;;;6.97;;
62475;SDS011;50739;45.670;11.936;2023-05-08T05:55:43;8.77;;;7.45;;
62475;SDS011;50739;45.670;11.936;2023-05-08T06:00:45;9.30;;;7.50;;
62475;SDS011;50739;45.670;11.936;2023-05-08T06:05:48;8.30;;;7.47;;
62475;SDS011;50739;45.670;11.936;2023-05-08T06:10:51;11.00;;;8.30;;
62475;SDS011;50739;45.670;11.936;2023-05-08T06:15:54;9.05;;;7.78;;
62475;SDS011;50739;45.670;11.936;2023-05-08T06:20:57;9.07;;;7.97;;
62475;SDS011;50739;45.670;11.936;2023-05-08T06:26:00;10.98;;;7.65;;
62475;SDS011;50739;45.670;11.936;2023-05-08T06:31:03;9.03;;;7.90;;
62475;SDS011;50739;45.670;11.936;2023-05-08T06:36:05;8.90;;;7.72;;
62475;SDS011;50739;45.670;11.936;2023-05-08T06:41:10;8.73;;;7.80;;
62475;SDS011;50739;45.670;11.936;2023-05-08T06:46:12;8.53;;;7.00;;
62475;SDS011;50739;45.670;11.936;2023-05-08T06:51:14;8.20;;;6.40;;
62475;SDS011;50739;45.670;11.936;2023-05-08T06:56:18;8.77;;;6.80;;
62475;SDS011;50739;45.670;11.936;2023-05-08T07:01:20;7.97;;;7.00;;
62475;SDS011;50739;45.670;11.936;2023-05-08T07:06:22;6.80;;;5.93;;
62475;SDS011;50739;45.670;11.936;2023-05-08T07:11:26;7.63;;;6.00;;
62475;SDS011;50739;45.670;11.936;2023-05-08T07:16:28;5.93;;;5.33;;
62475;SDS011;50739;45.670;11.936;2023-05-08T07:21:31;6.25;;;5.47;;
62475;SDS011;50739;45.670;11.936;2023-05-08T07:26:34;4.97;;;4.47;;
62475;SDS011;50739;45.670;11.936;2023-05-08T07:31:37;5.83;;;4.70;;
62475;SDS011;50739;45.670;11.936;2023-05-08T07:36:40;5.28;;;4.78;;
62475;SDS011;50739;45.670;11.936;2023-05-08T07:41:43;5.57;;;5.03;;
62475;SDS011;50739;45.670;11.936;2023-05-08T07:46:46;5.73;;;5.13;;
62475;SDS011;50739;45.670;11.936;2023-05-08T07:51:48;6.13;;;5.50;;
62475;SDS011;50739;45.670;11.936;2023-05-08T07:56:52;6.13;;;5.40;;
62475;SDS011;50739;45.670;11.936;2023-05-08T08:01:54;6.30;;;5.20;;
62475;SDS011;50739;45.670;11.936;2023-05-08T08:06:56;6.10;;;5.50;;
62475;SDS011;50739;45.670;11.936;2023-05-08T08:12:00;7.00;;;5.53;;
62475;SDS011;50739;45.670;11.936;2023-05-08T08:17:02;7.23;;;6.13;;
62475;SDS011;50739;45.670;11.936;2023-05-08T08:22:05;7.60;;;6.35;;
62475;SDS011;50739;45.670;11.936;2023-05-08T08:27:08;6.83;;;6.13;;
62475;SDS011;50739;45.670;11.936;2023-05-08T08:32:11;8.15;;;5.88;;
62475;SDS011;50739;45.670;11.936;2023-05-08T08:37:13;7.40;;;6.60;;
62475;SDS011;50739;45.670;11.936;2023-05-08T08:42:17;8.13;;;5.90;;
62475;SDS011;50739;45.670;11.936;2023-05-08T08:47:19;7.23;;;6.13;;
62475;SDS011;50739;45.670;11.936;2023-05-08T08:52:29;6.57;;;5.72;;
62475;SDS011;50739;45.670;11.936;2023-05-08T08:57:35;6.40;;;5.38;;
62475;SDS011;50739;45.670;11.936;2023-05-08T09:02:40;6.05;;;5.45;;
62475;SDS011;50739;45.670;11.936;2023-05-08T09:07:42;5.97;;;5.25;;
62475;SDS011;50739;45.670;11.936;2023-05-08T09:12:47;6.80;;;5.50;;
62475;SDS011;50739;45.670;11.936;2023-05-08T09:17:49;7.15;;;5.30;;
62475;SDS011;50739;45.670;11.936;2023-05-08T09:22:51;9.48;;;5.80;;
62475;SDS011;50739;45.670;11.936;2023-05-08T09:27:57;6.50;;;5.80;;
62475;SDS011;50739;45.670;11.936;2023-05-08T09:33:16;8.10;;;6.35;;
62475;SDS011;50739;45.670;11.936;2023-05-08T09:38:34;6.93;;;6.10;;
62475;SDS011;50739;45.670;11.936;2023-05-08T09:43:38;7.65;;;6.47;;
62475;SDS011;50739;45.670;11.936;2023-05-08T09:48:40;7.20;;;6.10;;
62475;SDS011;50739;45.670;11.936;2023-05-08T09:53:43;7.53;;;6.03;;
62475;SDS011;50739;45.670;11.936;2023-05-08T09:58:47;7.13;;;6.20;;
62475;SDS011;50739;45.670;11.936;2023-05-08T10:03:49;7.78;;;6.25;;
62475;SDS011;50739;45.670;11.936;2023-05-08T10:09:05;9.73;;;6.55;;
62475;SDS011;50739;45.670;11.936;2023-05-08T10:14:09;8.40;;;6.40;;
62475;SDS011;50739;45.670;11.936;2023-05-08T10:19:12;7.27;;;5.93;;
62475;SDS011;50739;45.670;11.936;2023-05-08T10:24:16;7.70;;;6.37;;
62475;SDS011;50739;45.670;11.936;2023-05-08T10:29:26;8.07;;;5.80;;
62475;SDS011;50739;45.670;11.936;2023-05-08T10:34:34;6.13;;;5.50;;
62475;SDS011;50739;45.670;11.936;2023-05-08T10:39:41;5.80;;;5.13;;
62475;SDS011;50739;45.670;11.936;2023-05-08T10:44:46;5.85;;;4.80;;
62475;SDS011;50739;45.670;11.936;2023-05-08T10:49:50;4.90;;;4.50;;
62475;SDS011;50739;45.670;11.936;2023-05-08T10:55:15;5.90;;;4.70;;
62475;SDS011;50739;45.670;11.936;2023-05-08T11:00:24;5.03;;;4.47;;
62475;SDS011;50739;45.670;11.936;2023-05-08T11:05:27;5.15;;;4.65;;
62475;SDS011;50739;45.670;11.936;2023-05-08T11:10:29;4.87;;;3.97;;
62475;SDS011;50739;45.670;11.936;2023-05-08T11:15:37;4.55;;;4.15;;
62475;SDS011;50739;45.670;11.936;2023-05-08T11:20:53;4.93;;;4.45;;
62475;SDS011;50739;45.670;11.936;2023-05-08T11:25:57;4.20;;;3.80;;
62475;SDS011;50739;45.670;11.936;2023-05-08T11:31:02;5.45;;;4.40;;
62475;SDS011;50739;45.670;11.936;2023-05-08T11:36:12;4.65;;;4.25;;
62475;SDS011;50739;45.670;11.936;2023-05-08T11:41:19;5.40;;;4.30;;
62475;SDS011;50739;45.670;11.936;2023-05-08T11:46:24;5.13;;;4.53;;
62475;SDS011;50739;45.670;11.936;2023-05-08T11:51:36;5.43;;;4.10;;
62475;SDS011;50739;45.670;11.936;2023-05-08T11:56:44;4.30;;;3.90;;
62475;SDS011;50739;45.670;11.936;2023-05-08T12:01:49;5.23;;;4.57;;
62475;SDS011;50739;45.670;11.936;2023-05-08T12:06:55;5.53;;;4.53;;
62475;SDS011;50739;45.670;11.936;2023-05-08T12:11:58;5.13;;;4.17;;
62475;SDS011;50739;45.670;11.936;2023-05-08T12:17:02;4.93;;;4.43;;
62475;SDS011;50739;45.670;11.936;2023-05-08T12:22:04;5.25;;;4.50;;
62475;SDS011;50739;45.670;11.936;2023-05-08T12:27:09;5.60;;;4.67;;
62475;SDS011;50739;45.670;11.936;2023-05-08T12:32:15;6.07;;;5.38;;
62475;SDS011;50739;45.670;11.936;2023-05-08T12:37:22;7.65;;;5.75;;
62475;SDS011;50739;45.670;11.936;2023-05-08T12:42:40;7.73;;;5.87;;
62475;SDS011;50739;45.670;11.936;2023-05-08T12:47:45;5.85;;;5.30;;
62475;SDS011;50739;45.670;11.936;2023-05-08T12:52:48;5.88;;;5.20;;
62475;SDS011;50739;45.670;11.936;2023-05-08T12:57:57;6.82;;;5.45;;
62475;SDS011;50739;45.670;11.936;2023-05-08T13:03:02;7.00;;;6.03;;
62475;SDS011;50739;45.670;11.936;2023-05-08T13:08:05;8.77;;;6.57;;
62475;SDS011;50739;45.670;11.936;2023-05-08T13:13:09;6.13;;;5.10;;
62475;SDS011;50739;45.670;11.936;2023-05-08T13:18:13;7.40;;;5.90;;
62475;SDS011;50739;45.670;11.936;2023-05-08T13:23:15;6.97;;;5.57;;
62475;SDS011;50739;45.670;11.936;2023-05-08T13:28:18;5.00;;;4.50;;
62475;SDS011;50739;45.670;11.936;2023-05-08T13:33:21;4.53;;;3.75;;
62475;SDS011;50739;45.670;11.936;2023-05-08T13:38:23;4.67;;;3.90;;
62475;SDS011;50739;45.670;11.936;2023-05-08T13:43:26;5.10;;;4.53;;
62475;SDS011;50739;45.670;11.936;2023-05-08T13:48:30;5.63;;;4.87;;
62475;SDS011;50739;45.670;11.936;2023-05-08T13:53:32;6.60;;;5.40;;
62475;SDS011;50739;45.670;11.936;2023-05-08T13:58:34;5.90;;;5.30;;
62475;SDS011;50739;45.670;11.936;2023-05-08T14:03:38;7.07;;;5.70;;
62475;SDS011;50739;45.670;11.936;2023-05-08T14:08:42;6.88;;;5.53;;
62475;SDS011;50739;45.670;11.936;2023-05-08T14:13:46;7.10;;;5.90;;
62475;SDS011;50739;45.670;11.936;2023-05-08T14:18:49;8.63;;;7.00;;
62475;SDS011;50739;45.670;11.936;2023-05-08T14:23:51;8.40;;;6.37;;
62475;SDS011;50739;45.670;11.936;2023-05-08T14:28:54;8.40;;;7.30;;
62475;SDS011;50739;45.670;11.936;2023-05-08T14:33:57;9.95;;;7.70;;
62475;SDS011;50739;45.670;11.936;2023-05-08T14:39:03;10.35;;;7.60;;
62475;SDS011;50739;45.670;11.936;2023-05-08T14:49:24;11.13;;;8.37;;
62475;SDS011;50739;45.670;11.936;2023-05-08T14:54:27;8.77;;;7.88;;
62475;SDS011;50739;45.670;11.936;2023-05-08T14:59:29;9.43;;;8.43;;
62475;SDS011;50739;45.670;11.936;2023-05-08T15:04:33;9.98;;;7.85;;
62475;SDS011;50739;45.670;11.936;2023-05-08T15:09:40;9.35;;;7.13;;
62475;SDS011;50739;45.670;11.936;2023-05-08T15:14:42;7.97;;;6.70;;
62475;SDS011;50739;45.670;11.936;2023-05-08T15:19:52;9.03;;;7.57;;
62475;SDS011;50739;45.670;11.936;2023-05-08T15:24:54;9.50;;;7.35;;
62475;SDS011;50739;45.670;11.936;2023-05-08T15:30:01;7.77;;;6.00;;
62475;SDS011;50739;45.670;11.936;2023-05-08T15:35:05;6.38;;;5.70;;
62475;SDS011;50739;45.670;11.936;2023-05-08T15:40:08;8.20;;;6.60;;
62475;SDS011;50739;45.670;11.936;2023-05-08T15:45:11;7.93;;;7.07;;
62475;SDS011;50739;45.670;11.936;2023-05-08T15:50:16;7.63;;;6.28;;
62475;SDS011;50739;45.670;11.936;2023-05-08T15:55:18;8.68;;;6.80;;
62475;SDS011;50739;45.670;11.936;2023-05-08T16:00:21;11.48;;;7.93;;
62475;SDS011;50739;45.670;11.936;2023-05-08T16:05:25;10.73;;;7.53;;
62475;SDS011;50739;45.670;11.936;2023-05-08T16:10:27;9.80;;;7.63;;
62475;SDS011;50739;45.670;11.936;2023-05-08T16:15:29;9.02;;;7.32;;
62475;SDS011;50739;45.670;11.936;2023-05-08T16:20:33;8.23;;;7.28;;
62475;SDS011;50739;45.670;11.936;2023-05-08T16:25:35;10.45;;;7.60;;
62475;SDS011;50739;45.670;11.936;2023-05-08T16:30:38;9.30;;;7.63;;
62475;SDS011;50739;45.670;11.936;2023-05-08T16:35:42;10.40;;;7.60;;
62475;SDS011;50739;45.670;11.936;2023-05-08T16:40:44;7.80;;;7.00;;
62475;SDS011;50739;45.670;11.936;2023-05-08T16:45:51;7.88;;;6.90;;
62475;SDS011;50739;45.670;11.936;2023-05-08T16:50:54;9.73;;;7.97;;
62475;SDS011;50739;45.670;11.936;2023-05-08T16:56:00;6.75;;;6.03;;
62475;SDS011;50739;45.670;11.936;2023-05-08T17:01:02;6.45;;;5.00;;
62475;SDS011;50739;45.670;11.936;2023-05-08T17:06:06;5.77;;;4.80;;
62475;SDS011;50739;45.670;11.936;2023-05-08T17:11:12;5.00;;;4.43;;
62475;SDS011;50739;45.670;11.936;2023-05-08T17:16:14;5.65;;;4.75;;
62475;SDS011;50739;45.670;11.936;2023-05-08T17:21:18;5.40;;;4.45;;
62475;SDS011;50739;45.670;11.936;2023-05-08T17:26:20;6.40;;;4.80;;
62475;SDS011;50739;45.670;11.936;2023-05-08T17:31:22;7.37;;;4.90;;
62475;SDS011;50739;45.670;11.936;2023-05-08T17:36:26;5.40;;;4.90;;
62475;SDS011;50739;45.670;11.936;2023-05-08T17:41:29;6.25;;;5.63;;
62475;SDS011;50739;45.670;11.936;2023-05-08T17:46:31;5.87;;;5.20;;
62475;SDS011;50739;45.670;11.936;2023-05-08T17:51:35;7.20;;;5.40;;
62475;SDS011;50739;45.670;11.936;2023-05-08T17:56:37;6.00;;;5.22;;
62475;SDS011;50739;45.670;11.936;2023-05-08T18:01:40;7.10;;;5.10;;
62475;SDS011;50739;45.670;11.936;2023-05-08T18:06:43;6.10;;;5.10;;
62475;SDS011;50739;45.670;11.936;2023-05-08T18:11:50;6.60;;;5.37;;
62475;SDS011;50739;45.670;11.936;2023-05-08T18:16:55;7.55;;;5.57;;
62475;SDS011;50739;45.670;11.936;2023-05-08T18:21:59;6.03;;;5.20;;
62475;SDS011;50739;45.670;11.936;2023-05-08T18:27:01;7.60;;;5.80;;
62475;SDS011;50739;45.670;11.936;2023-05-08T18:32:03;6.88;;;5.35;;
62475;SDS011;50739;45.670;11.936;2023-05-08T18:37:07;6.68;;;5.28;;
62475;SDS011;50739;45.670;11.936;2023-05-08T18:42:13;6.70;;;5.05;;
62475;SDS011;50739;45.670;11.936;2023-05-08T18:47:15;6.53;;;4.30;;
62475;SDS011;50739;45.670;11.936;2023-05-08T18:52:19;4.28;;;3.40;;
62475;SDS011;50739;45.670;11.936;2023-05-08T18:57:21;2.90;;;2.60;;
62475;SDS011;50739;45.670;11.936;2023-05-08T19:02:23;2.10;;;1.85;;
62475;SDS011;50739;45.670;11.936;2023-05-08T19:07:28;2.30;;;1.40;;
62475;SDS011;50739;45.670;11.936;2023-05-08T19:12:31;1.50;;;1.40;;
62475;SDS011;50739;45.670;11.936;2023-05-08T19:17:33;1.50;;;1.40;;
62475;SDS011;50739;45.670;11.936;2023-05-08T19:22:37;2.03;;;1.60;;
62475;SDS011;50739;45.670;11.936;2023-05-08T19:27:39;2.40;;;1.53;;
62475;SDS011;50739;45.670;11.936;2023-05-08T19:32:42;2.10;;;1.50;;
62475;SDS011;50739;45.670;11.936;2023-05-08T19:37:46;2.10;;;1.85;;
62475;SDS011;50739;45.670;11.936;2023-05-08T19:42:48;2.58;;;1.90;;
62475;SDS011;50739;45.670;11.936;2023-05-08T19:47:50;2.10;;;1.90;;
62475;SDS011;50739;45.670;11.936;2023-05-08T19:52:54;1.75;;;1.60;;
62475;SDS011;50739;45.670;11.936;2023-05-08T19:57:57;2.13;;;1.52;;
62475;SDS011;50739;45.670;11.936;2023-05-08T20:02:59;2.42;;;1.90;;
62475;SDS011;50739;45.670;11.936;2023-05-08T20:08:03;2.03;;;1.60;;
62475;SDS011;50739;45.670;11.936;2023-05-08T20:13:05;2.93;;;1.90;;
62475;SDS011;50739;45.670;11.936;2023-05-08T20:18:07;2.63;;;1.92;;
62475;SDS011;50739;45.670;11.936;2023-05-08T20:23:11;2.20;;;1.90;;
62475;SDS011;50739;45.670;11.936;2023-05-08T20:28:14;2.10;;;1.88;;
62475;SDS011;50739;45.670;11.936;2023-05-08T20:33:21;2.10;;;1.90;;
62475;SDS011;50739;45.670;11.936;2023-05-08T20:38:25;2.50;;;1.83;;
62475;SDS011;50739;45.670;11.936;2023-05-08T20:43:28;2.20;;;2.00;;
62475;SDS011;50739;45.670;11.936;2023-05-08T20:48:30;3.53;;;2.50;;
62475;SDS011;50739;45.670;11.936;2023-05-08T20:53:33;3.60;;;2.60;;
62475;SDS011;50739;45.670;11.936;2023-05-08T20:58:36;2.60;;;2.40;;
62475;SDS011;50739;45.670;11.936;2023-05-08T21:03:38;2.72;;;2.50;;
62475;SDS011;50739;45.670;11.936;2023-05-08T21:08:42;3.75;;;2.70;;
62475;SDS011;50739;45.670;11.936;2023-05-08T21:13:44;2.50;;;2.30;;
62475;SDS011;50739;45.670;11.936;2023-05-08T21:18:46;3.35;;;2.47;;
62475;SDS011;50739;45.670;11.936;2023-05-08T21:23:53;3.53;;;2.67;;
62475;SDS011;50739;45.670;11.936;2023-05-08T21:28:55;3.50;;;2.60;;
62475;SDS011;50739;45.670;11.936;2023-05-08T21:34:00;2.80;;;2.43;;
62475;SDS011;50739;45.670;11.936;2023-05-08T21:39:04;3.15;;;2.70;;
62475;SDS011;50739;45.670;11.936;2023-05-08T21:44:06;3.13;;;2.80;;
62475;SDS011;50739;45.670;11.936;2023-05-08T21:49:11;3.50;;;2.87;;
62475;SDS011;50739;45.670;11.936;2023-05-08T21:54:15;4.75;;;2.83;;
62475;SDS011;50739;45.670;11.936;2023-05-08T21:59:17;3.08;;;2.63;;
62475;SDS011;50739;45.670;11.936;2023-05-08T22:04:19;2.80;;;2.50;;
62475;SDS011;50739;45.670;11.936;2023-05-08T22:09:24;4.03;;;2.83;;
62475;SDS011;50739;45.670;11.936;2023-05-08T22:14:41;4.37;;;2.87;;
62475;SDS011;50739;45.670;11.936;2023-05-08T22:19:43;3.75;;;3.00;;
62475;SDS011;50739;45.670;11.936;2023-05-08T22:24:47;3.50;;;3.20;;
62475;SDS011;50739;45.670;11.936;2023-05-08T22:29:50;4.00;;;3.15;;
62475;SDS011;50739;45.670;11.936;2023-05-08T22:34:52;3.97;;;3.57;;
62475;SDS011;50739;45.670;11.936;2023-05-08T22:39:56;5.40;;;3.27;;
62475;SDS011;50739;45.670;11.936;2023-05-08T22:44:59;4.45;;;3.40;;
62475;SDS011;50739;45.670;11.936;2023-05-08T22:50:02;4.13;;;3.67;;
62475;SDS011;50739;45.670;11.936;2023-05-08T22:55:09;4.43;;;3.53;;
62475;SDS011;50739;45.670;11.936;2023-05-08T23:00:12;4.23;;;3.67;;
62475;SDS011;50739;45.670;11.936;2023-05-08T23:05:14;4.93;;;4.00;;
62475;SDS011;50739;45.670;11.936;2023-05-08T23:10:18;5.90;;;4.60;;
62475;SDS011;50739;45.670;11.936;2023-05-08T23:15:20;5.53;;;4.43;;
62475;SDS011;50739;45.670;11.936;2023-05-08T23:20:22;6.45;;;4.68;;
62475;SDS011;50739;45.670;11.936;2023-05-08T23:25:26;6.37;;;4.77;;
62475;SDS011;50739;45.670;11.936;2023-05-08T23:30:29;7.55;;;4.53;;
62475;SDS011;50739;45.670;11.936;2023-05-08T23:35:31;7.22;;;4.95;;
62475;SDS011;50739;45.670;11.936;2023-05-08T23:40:34;5.25;;;4.40;;
62475;SDS011;50739;45.670;11.936;2023-05-08T23:45:37;5.85;;;4.57;;
62475;SDS011;50739;45.670;11.936;2023-05-08T23:50:39;5.65;;;4.70;;
62475;SDS011;50739;45.670;11.936;2023-05-08T23:55:42;5.57;;;4.68;;
